Time;durP1;ratioP1;P1;durP2;ratioP2;P2;SDS_P1;SDS_P2;PMS_P1;PMS_P2;Temp;Humidity;BMP_temperature;BMP_pressure;BME280_temperature;BME280_humidity;BME280_pressure;Samples;Min_cycle;Max_cycle;Signal;HPM_P1;HPM_P2
2023/05/02 00:01:58;;;;;;;14.93;8.73;;;;;;;;;;4987746;28;20637;-69
2023/05/02 00:04:23;;;;;;;20.50;10.03;;;;;;;;;;4992743;28;20276;-68
2023/05/02 00:06:50;;;;;;;16.57;10.07;;;;;;;;;;4983996;28;20196;-69
2023/05/02 00:09:15;;;;;;;18.87;9.70;;;;;;;;;;4982011;28;20287;-68
2023/05/02 00:11:40;;;;;;;20.30;9.33;;;;;;;;;;4988064;28;20203;-69
2023/05/02 00:14:05;;;;;;;20.30;9.67;;;;;;;;;;4981804;28;20241;-69
2023/05/02 00:16:30;;;;;;;18.03;8.87;;;;;;;;;;4984268;28;20202;-69
2023/05/02 00:18:56;;;;;;;16.83;9.47;;;;;;;;;;4975961;28;20631;-69
2023/05/02 00:21:21;;;;;;;18.47;10.27;;;;;;;;;;4977847;28;20206;-69
2023/05/02 00:23:46;;;;;;;19.67;10.53;;;;;;;;;;4980643;28;20219;-69
2023/05/02 00:26:11;;;;;;;16.83;10.07;;;;;;;;;;4983485;28;20198;-69
2023/05/02 00:28:37;;;;;;;20.97;10.80;;;;;;;;;;4988142;28;20180;-69
2023/05/02 00:31:03;;;;;;;21.33;10.27;;;;;;;;;;4985801;28;20416;-69
2023/05/02 00:33:28;;;;;;;19.97;10.47;;;;;;;;;;4990262;28;20211;-69
2023/05/02 00:35:53;;;;;;;16.33;9.53;;;;;;;;;;4986364;28;20190;-69
2023/05/02 00:38:19;;;;;;;18.67;11.30;;;;;;;;;;4977733;28;20285;-68
2023/05/02 00:40:45;;;;;;;17.27;9.10;;;;;;;;;;4982648;28;20172;-68
2023/05/02 00:43:10;;;;;;;15.00;9.37;;;;;;;;;;4983336;28;20306;-69
2023/05/02 00:45:36;;;;;;;18.80;10.13;;;;;;;;;;4989934;28;20184;-68
2023/05/02 00:48:01;;;;;;;15.10;8.97;;;;;;;;;;4992327;28;20665;-69
2023/05/02 00:50:27;;;;;;;18.90;9.67;;;;;;;;;;4992551;28;20653;-69
2023/05/02 00:52:54;;;;;;;21.27;10.57;;;;;;;;;;4989972;28;20617;-69
2023/05/02 00:55:19;;;;;;;16.40;10.33;;;;;;;;;;4988282;28;20720;-69
2023/05/02 00:57:44;;;;;;;16.23;10.20;;;;;;;;;;4989634;28;20203;-69
2023/05/02 01:00:10;;;;;;;18.53;10.53;;;;;;;;;;4991430;28;20314;-69
2023/05/02 01:02:35;;;;;;;15.10;9.87;;;;;;;;;;4983091;28;20183;-69
2023/05/02 01:05:19;;;;;;;17.90;10.20;;;;;;;;;;4986945;28;20188;-69
2023/05/02 01:08:04;;;;;;;18.53;10.73;;;;;;;;;;4983286;28;20960;-69
2023/05/02 01:10:35;;;;;;;15.67;11.17;;;;;;;;;;4984257;28;20206;-69
2023/05/02 01:13:00;;;;;;;19.40;10.97;;;;;;;;;;4983874;28;20244;-69
2023/05/02 01:15:25;;;;;;;22.80;12.07;;;;;;;;;;4989851;28;20221;-69
2023/05/02 01:17:53;;;;;;;15.80;11.33;;;;;;;;;;4978254;28;22535;-69
2023/05/02 01:20:20;;;;;;;23.70;11.13;;;;;;;;;;4980148;28;20183;-69
2023/05/02 01:22:46;;;;;;;21.03;12.93;;;;;;;;;;4982081;28;20657;-69
2023/05/02 01:25:14;;;;;;;18.03;10.67;;;;;;;;;;4984204;28;20183;-69
2023/05/02 01:27:46;;;;;;;20.57;11.57;;;;;;;;;;4983659;28;20286;-70
2023/05/02 01:30:13;;;;;;;18.33;9.67;;;;;;;;;;4984129;28;20253;-69
2023/05/02 01:32:40;;;;;;;14.50;7.17;;;;;;;;;;4983538;28;20200;-69
2023/05/02 01:35:05;;;;;;;10.53;5.87;;;;;;;;;;4983709;28;20207;-69
2023/05/02 01:37:32;;;;;;;7.70;4.57;;;;;;;;;;4977815;28;20220;-69
2023/05/02 01:39:57;;;;;;;6.47;4.40;;;;;;;;;;4988547;28;20261;-70
2023/05/02 01:42:24;;;;;;;8.17;4.43;;;;;;;;;;4990411;28;20274;-69
2023/05/02 01:44:50;;;;;;;8.60;3.60;;;;;;;;;;4992110;28;20691;-68
2023/05/02 01:47:16;;;;;;;3.70;2.70;;;;;;;;;;4982967;28;20218;-68
2023/05/02 01:49:42;;;;;;;6.20;3.00;;;;;;;;;;4981785;28;20189;-68
2023/05/02 01:52:10;;;;;;;6.87;2.43;;;;;;;;;;4988765;28;20199;-68
2023/05/02 01:54:36;;;;;;;7.03;2.90;;;;;;;;;;4990000;28;20314;-68
2023/05/02 01:57:03;;;;;;;11.00;4.27;;;;;;;;;;4987444;28;20286;-68
2023/05/02 01:59:30;;;;;;;11.47;3.30;;;;;;;;;;4991296;28;20184;-69
2023/05/02 02:01:56;;;;;;;11.50;2.80;;;;;;;;;;4987771;28;20262;-68
2023/05/02 02:04:22;;;;;;;6.60;3.37;;;;;;;;;;4983331;28;20627;-69
2023/05/02 02:06:51;;;;;;;6.80;3.07;;;;;;;;;;4991425;28;20214;-69
2023/05/02 02:09:16;;;;;;;3.73;3.13;;;;;;;;;;4990365;28;20184;-69
2023/05/02 02:11:49;;;;;;;5.13;3.07;;;;;;;;;;4990838;28;20347;-69
2023/05/02 02:14:20;;;;;;;10.40;3.77;;;;;;;;;;4988828;28;20192;-69
2023/05/02 02:16:45;;;;;;;8.90;3.00;;;;;;;;;;4986694;28;20200;-69
2023/05/02 02:19:12;;;;;;;11.13;3.00;;;;;;;;;;4982500;28;20215;-69
2023/05/02 02:21:39;;;;;;;9.37;2.93;;;;;;;;;;4991760;28;20712;-69
2023/05/02 02:24:05;;;;;;;12.07;3.80;;;;;;;;;;4990318;28;20180;-68
2023/05/02 02:26:31;;;;;;;6.23;3.10;;;;;;;;;;4985490;28;20257;-68
2023/05/02 02:28:56;;;;;;;7.43;3.43;;;;;;;;;;4986915;28;20176;-69
2023/05/02 02:31:24;;;;;;;6.23;2.80;;;;;;;;;;4987977;28;20176;-69
2023/05/02 02:33:49;;;;;;;11.47;2.97;;;;;;;;;;4991005;28;20689;-69
2023/05/02 02:36:20;;;;;;;11.57;3.30;;;;;;;;;;4988729;28;20253;-68
2023/05/02 02:39:01;;;;;;;10.37;2.57;;;;;;;;;;4979301;28;20745;-69
2023/05/02 02:41:30;;;;;;;5.83;2.67;;;;;;;;;;4989176;28;20234;-69
2023/05/02 02:44:10;;;;;;;7.10;2.40;;;;;;;;;;4988217;28;20179;-68
2023/05/02 02:46:38;;;;;;;4.93;1.80;;;;;;;;;;4990463;28;20296;-68
2023/05/02 02:49:14;;;;;;;5.73;2.63;;;;;;;;;;4986278;28;20257;-69
2023/05/02 02:51:48;;;;;;;4.93;2.00;;;;;;;;;;4986073;28;20287;-68
2023/05/02 02:54:21;;;;;;;7.17;2.40;;;;;;;;;;4989952;28;20176;-69
2023/05/02 02:56:49;;;;;;;7.20;2.03;;;;;;;;;;4990180;28;20707;-68
2023/05/02 02:59:18;;;;;;;6.53;1.93;;;;;;;;;;4986655;28;20199;-69
2023/05/02 03:01:50;;;;;;;6.63;2.00;;;;;;;;;;4988206;28;20183;-69
2023/05/02 03:04:16;;;;;;;2.60;2.13;;;;;;;;;;4988225;28;20187;-69
2023/05/02 03:06:41;;;;;;;3.13;1.93;;;;;;;;;;4989121;28;20564;-69
2023/05/02 03:09:13;;;;;;;7.57;2.50;;;;;;;;;;4990666;28;20176;-69
2023/05/02 03:11:38;;;;;;;3.03;1.30;;;;;;;;;;4987303;28;20650;-69
2023/05/02 03:14:03;;;;;;;10.97;3.00;;;;;;;;;;4989526;28;20203;-69
2023/05/02 03:16:29;;;;;;;2.67;1.50;;;;;;;;;;4978608;28;20227;-69
2023/05/02 03:18:54;;;;;;;4.03;2.03;;;;;;;;;;4987099;28;20207;-69
2023/05/02 03:21:20;;;;;;;12.17;2.80;;;;;;;;;;4987147;28;20672;-69
2023/05/02 03:23:45;;;;;;;3.73;1.60;;;;;;;;;;4990525;28;20705;-69
2023/05/02 03:26:10;;;;;;;10.03;1.80;;;;;;;;;;4986521;28;20587;-70
2023/05/02 03:28:35;;;;;;;9.07;1.70;;;;;;;;;;4982963;28;20187;-69
2023/05/02 03:31:01;;;;;;;4.27;1.60;;;;;;;;;;4984624;28;20215;-69
2023/05/02 03:33:26;;;;;;;16.90;2.63;;;;;;;;;;4979385;28;20250;-69
2023/05/02 03:35:52;;;;;;;6.20;2.00;;;;;;;;;;4979811;28;20662;-69
2023/05/02 03:38:17;;;;;;;7.87;2.37;;;;;;;;;;4980777;28;20546;-69
2023/05/02 03:40:42;;;;;;;5.00;1.90;;;;;;;;;;4983148;28;20188;-69
2023/05/02 03:43:07;;;;;;;2.07;1.40;;;;;;;;;;4985596;28;20203;-69
2023/05/02 03:45:33;;;;;;;4.63;2.03;;;;;;;;;;4989911;28;20180;-69
2023/05/02 03:47:59;;;;;;;3.90;1.70;;;;;;;;;;4988790;28;20227;-69
2023/05/02 03:50:24;;;;;;;4.23;1.80;;;;;;;;;;4989116;28;20184;-69
2023/05/02 03:52:49;;;;;;;3.87;1.70;;;;;;;;;;4987967;28;20199;-69
2023/05/02 03:55:14;;;;;;;6.60;1.97;;;;;;;;;;4990994;28;20180;-69
2023/05/02 03:57:39;;;;;;;9.63;2.13;;;;;;;;;;4988859;28;20211;-69
2023/05/02 04:00:05;;;;;;;4.93;1.87;;;;;;;;;;4989889;28;20175;-69
2023/05/02 04:02:30;;;;;;;3.13;1.63;;;;;;;;;;4983439;28;20179;-69
2023/05/02 04:04:55;;;;;;;2.10;1.40;;;;;;;;;;4989444;28;20318;-69
2023/05/02 04:07:21;;;;;;;5.23;1.67;;;;;;;;;;4991749;28;20560;-69
2023/05/02 04:09:46;;;;;;;7.83;1.80;;;;;;;;;;4989988;28;20194;-69
2023/05/02 04:12:11;;;;;;;5.00;1.23;;;;;;;;;;4985609;28;20203;-69
2023/05/02 04:14:36;;;;;;;4.40;1.63;;;;;;;;;;4990027;28;20187;-69
2023/05/02 04:17:02;;;;;;;3.67;1.20;;;;;;;;;;4981810;28;20582;-69
2023/05/02 04:19:28;;;;;;;5.60;1.93;;;;;;;;;;4983338;28;20180;-69
2023/05/02 04:21:53;;;;;;;3.70;1.23;;;;;;;;;;4992807;28;20187;-69
2023/05/02 04:24:18;;;;;;;3.27;1.00;;;;;;;;;;4989706;28;20206;-69
2023/05/02 04:26:46;;;;;;;8.33;1.10;;;;;;;;;;4991652;28;20204;-68
2023/05/02 04:29:12;;;;;;;3.97;2.47;;;;;;;;;;4988532;28;20200;-69
2023/05/02 04:31:37;;;;;;;4.63;1.30;;;;;;;;;;4985439;28;20180;-69
2023/05/02 04:34:03;;;;;;;5.20;1.67;;;;;;;;;;4993272;28;20768;-68
2023/05/02 04:36:28;;;;;;;1.90;1.20;;;;;;;;;;4980406;28;20234;-68
2023/05/02 04:38:53;;;;;;;4.00;1.43;;;;;;;;;;4989705;28;20180;-68
2023/05/02 04:41:18;;;;;;;5.17;1.30;;;;;;;;;;4984158;28;20172;-69
2023/05/02 04:43:44;;;;;;;2.07;1.50;;;;;;;;;;4986827;28;20184;-69
2023/05/02 04:46:09;;;;;;;3.20;1.30;;;;;;;;;;4989039;28;20634;-69
2023/05/02 04:48:34;;;;;;;3.40;1.10;;;;;;;;;;4983722;28;20180;-68
2023/05/02 04:51:00;;;;;;;5.33;1.50;;;;;;;;;;4985274;28;20488;-68
2023/05/02 04:53:25;;;;;;;4.97;1.23;;;;;;;;;;4983276;28;20203;-68
2023/05/02 04:55:51;;;;;;;2.17;1.23;;;;;;;;;;4982206;28;20210;-69
2023/05/02 04:58:16;;;;;;;7.77;1.40;;;;;;;;;;4972124;28;20199;-69
2023/05/02 05:00:41;;;;;;;6.30;2.30;;;;;;;;;;4982759;28;20226;-69
2023/05/02 05:03:06;;;;;;;8.53;2.17;;;;;;;;;;4989920;28;20183;-69
2023/05/02 05:05:32;;;;;;;6.83;1.90;;;;;;;;;;4994012;28;20175;-69
2023/05/02 05:07:57;;;;;;;4.33;1.90;;;;;;;;;;4993189;28;20203;-69
2023/05/02 05:10:22;;;;;;;4.30;1.43;;;;;;;;;;4992303;28;20172;-70
2023/05/02 05:12:48;;;;;;;4.60;1.77;;;;;;;;;;4984798;28;20199;-69
2023/05/02 05:15:13;;;;;;;5.10;1.60;;;;;;;;;;4976672;28;20179;-69
2023/05/02 05:17:39;;;;;;;7.33;1.97;;;;;;;;;;4983751;28;20757;-69
2023/05/02 05:20:05;;;;;;;11.77;2.50;;;;;;;;;;4991200;28;20282;-68
2023/05/02 05:22:30;;;;;;;3.37;1.80;;;;;;;;;;4982733;28;20181;-69
2023/05/02 05:24:55;;;;;;;4.00;1.67;;;;;;;;;;4988486;28;20338;-70
2023/05/02 05:27:20;;;;;;;4.57;1.93;;;;;;;;;;4984068;28;20306;-68
2023/05/02 05:29:46;;;;;;;5.87;1.90;;;;;;;;;;4987236;28;20188;-70
2023/05/02 05:32:11;;;;;;;9.93;2.43;;;;;;;;;;4988125;28;20294;-68
2023/05/02 05:34:36;;;;;;;8.07;1.77;;;;;;;;;;4990015;28;21064;-70
2023/05/02 05:37:01;;;;;;;11.10;2.77;;;;;;;;;;4992977;28;20669;-69
2023/05/02 05:39:27;;;;;;;7.40;2.17;;;;;;;;;;4991033;28;20175;-70
2023/05/02 05:41:53;;;;;;;7.60;2.00;;;;;;;;;;4977129;28;20265;-68
2023/05/02 05:44:20;;;;;;;4.27;1.63;;;;;;;;;;4987390;28;20225;-67
2023/05/02 05:46:46;;;;;;;7.37;2.20;;;;;;;;;;4990970;28;20207;-68
2023/05/02 05:49:11;;;;;;;10.23;2.30;;;;;;;;;;4986838;28;20717;-68
2023/05/02 05:51:36;;;;;;;7.40;2.37;;;;;;;;;;4984100;28;20262;-68
2023/05/02 05:54:01;;;;;;;7.87;2.13;;;;;;;;;;4984365;28;20180;-68
2023/05/02 05:56:27;;;;;;;6.73;2.30;;;;;;;;;;5006056;22;20676;-79
2023/05/02 05:58:53;;;;;;;8.27;2.60;;;;;;;;;;5012633;28;20202;-79
2023/05/02 06:01:18;;;;;;;5.27;2.70;;;;;;;;;;5005281;28;20179;-77
2023/05/02 06:03:43;;;;;;;10.13;2.83;;;;;;;;;;5006762;28;20186;-78
2023/05/02 06:06:09;;;;;;;8.20;2.97;;;;;;;;;;5007849;28;20283;-78
2023/05/02 06:08:34;;;;;;;4.23;2.10;;;;;;;;;;5003676;28;20236;-78
2023/05/02 06:10:59;;;;;;;4.60;2.10;;;;;;;;;;5005803;28;20186;-78
2023/05/02 06:13:24;;;;;;;7.63;1.77;;;;;;;;;;5004253;28;20214;-78
2023/05/02 06:15:50;;;;;;;10.47;2.63;;;;;;;;;;5003697;28;20183;-79
2023/05/02 06:18:15;;;;;;;9.90;2.70;;;;;;;;;;5020722;28;20181;-78
2023/05/02 06:20:40;;;;;;;3.60;1.80;;;;;;;;;;5030231;28;20195;-79
2023/05/02 06:23:05;;;;;;;5.43;1.70;;;;;;;;;;5018185;28;20187;-80
2023/05/02 06:25:32;;;;;;;8.97;2.43;;;;;;;;;;5014902;28;20193;-79
2023/05/02 06:27:57;;;;;;;5.17;2.20;;;;;;;;;;5012274;28;21779;-78
2023/05/02 06:30:23;;;;;;;5.13;1.97;;;;;;;;;;5006919;28;20262;-79
2023/05/02 06:32:48;;;;;;;3.87;1.93;;;;;;;;;;5006735;28;20198;-78
2023/05/02 06:35:13;;;;;;;6.57;1.63;;;;;;;;;;5012551;28;20175;-78
2023/05/02 06:37:38;;;;;;;6.17;1.93;;;;;;;;;;5012480;28;20206;-79
2023/05/02 06:40:04;;;;;;;8.60;2.10;;;;;;;;;;5012910;28;20175;-80
2023/05/02 06:42:29;;;;;;;7.13;1.73;;;;;;;;;;5015112;28;20182;-79
2023/05/02 06:44:55;;;;;;;5.67;1.83;;;;;;;;;;5016742;28;20175;-79
2023/05/02 06:47:20;;;;;;;7.83;1.47;;;;;;;;;;5017362;28;20203;-79
2023/05/02 06:49:46;;;;;;;13.23;1.70;;;;;;;;;;5016404;28;20233;-78
2023/05/02 06:52:11;;;;;;;9.90;2.00;;;;;;;;;;5012730;28;20198;-79
2023/05/02 06:54:37;;;;;;;8.23;1.53;;;;;;;;;;5013858;28;20210;-78
2023/05/02 06:57:02;;;;;;;5.10;2.03;;;;;;;;;;5029643;28;20254;-78
2023/05/02 06:59:28;;;;;;;4.20;1.33;;;;;;;;;;5018512;28;20693;-78
2023/05/02 07:01:53;;;;;;;4.73;2.20;;;;;;;;;;5018192;28;20260;-77
2023/05/02 07:04:18;;;;;;;2.90;1.27;;;;;;;;;;5014973;28;20182;-78
2023/05/02 07:06:46;;;;;;;4.23;1.50;;;;;;;;;;5023269;28;20186;-78
2023/05/02 07:09:11;;;;;;;6.00;1.43;;;;;;;;;;5017592;28;20187;-78
2023/05/02 07:11:36;;;;;;;2.03;1.27;;;;;;;;;;5022074;28;20185;-78
2023/05/02 07:14:02;;;;;;;4.73;1.93;;;;;;;;;;5020735;28;20182;-78
2023/05/02 07:16:27;;;;;;;3.07;1.40;;;;;;;;;;5012687;28;20220;-78
2023/05/02 07:18:52;;;;;;;6.15;1.50;;;;;;;;;;5017824;28;20187;-79
2023/05/02 07:21:18;;;;;;;3.13;1.10;;;;;;;;;;5014984;28;20182;-79
2023/05/02 07:23:43;;;;;;;3.72;1.45;;;;;;;;;;5013009;28;20210;-79
2023/05/02 07:26:08;;;;;;;6.43;1.58;;;;;;;;;;5011076;28;20221;-80
2023/05/02 07:28:33;;;;;;;4.00;1.95;;;;;;;;;;5013499;28;20207;-79
2023/05/02 07:30:59;;;;;;;5.73;1.47;;;;;;;;;;5011596;28;20187;-79
2023/05/02 07:33:24;;;;;;;2.47;1.48;;;;;;;;;;5005419;28;20199;-79
2023/05/02 07:35:50;;;;;;;8.05;1.48;;;;;;;;;;5015187;28;20193;-80
2023/05/02 07:38:15;;;;;;;4.90;1.55;;;;;;;;;;5012742;28;20231;-79
2023/05/02 07:40:40;;;;;;;4.68;1.30;;;;;;;;;;5011023;28;20186;-79
2023/05/02 07:43:05;;;;;;;5.28;1.35;;;;;;;;;;5009522;28;20645;-79
2023/05/02 07:45:31;;;;;;;2.20;1.30;;;;;;;;;;5011491;28;20236;-79
2023/05/02 07:47:56;;;;;;;2.45;1.05;;;;;;;;;;5012402;28;20207;-79
2023/05/02 07:50:21;;;;;;;3.08;1.27;;;;;;;;;;5010697;28;20170;-79
2023/05/02 07:52:46;;;;;;;3.85;1.42;;;;;;;;;;5012124;28;20657;-79
2023/05/02 07:55:12;;;;;;;3.03;0.90;;;;;;;;;;5010486;28;20186;-79
2023/05/02 07:57:37;;;;;;;6.15;1.60;;;;;;;;;;5009919;28;20218;-79
2023/05/02 08:00:03;;;;;;;2.65;0.95;;;;;;;;;;5016544;28;20230;-79
2023/05/02 08:02:28;;;;;;;4.55;1.23;;;;;;;;;;5007898;28;20559;-79
2023/05/02 08:04:53;;;;;;;3.30;1.00;;;;;;;;;;5011712;28;20175;-79
2023/05/02 08:07:18;;;;;;;2.65;1.27;;;;;;;;;;5018221;28;20198;-79
2023/05/02 08:09:44;;;;;;;3.28;0.98;;;;;;;;;;5020467;28;20179;-79
2023/05/02 08:12:09;;;;;;;2.08;0.85;;;;;;;;;;5019177;28;20202;-79
2023/05/02 08:14:34;;;;;;;3.33;0.90;;;;;;;;;;5022080;28;20664;-77
2023/05/02 08:17:00;;;;;;;1.58;1.38;;;;;;;;;;5014562;28;20615;-77
2023/05/02 08:19:25;;;;;;;3.47;0.85;;;;;;;;;;5013467;28;20270;-77
2023/05/02 08:21:52;;;;;;;7.22;1.10;;;;;;;;;;5014668;28;20175;-78
2023/05/02 08:24:17;;;;;;;3.47;1.23;;;;;;;;;;5012913;28;20213;-78
2023/05/02 08:26:43;;;;;;;1.63;1.13;;;;;;;;;;5010397;28;20295;-78
2023/05/02 08:29:10;;;;;;;3.20;1.00;;;;;;;;;;5013214;28;20191;-78
2023/05/02 08:31:35;;;;;;;3.42;1.00;;;;;;;;;;4997971;28;20602;-78
2023/05/02 08:34:00;;;;;;;4.38;1.55;;;;;;;;;;5011602;28;20342;-78
2023/05/02 08:36:27;;;;;;;5.57;1.42;;;;;;;;;;5012879;28;20202;-78
2023/05/02 08:38:52;;;;;;;2.80;1.13;;;;;;;;;;5013602;28;20202;-78
2023/05/02 08:41:18;;;;;;;4.38;1.45;;;;;;;;;;5010437;28;21181;-78
2023/05/02 08:43:44;;;;;;;4.00;1.10;;;;;;;;;;5008942;28;20544;-78
2023/05/02 08:46:10;;;;;;;5.80;1.67;;;;;;;;;;5008186;28;20233;-79
2023/05/02 08:48:36;;;;;;;5.43;1.42;;;;;;;;;;5001582;28;20555;-78
2023/05/02 08:51:02;;;;;;;4.18;1.15;;;;;;;;;;5008801;28;20667;-79
2023/05/02 08:53:28;;;;;;;4.03;0.93;;;;;;;;;;5008309;28;20237;-76
2023/05/02 08:55:53;;;;;;;2.85;1.23;;;;;;;;;;5010309;28;20267;-78
2023/05/02 08:58:18;;;;;;;2.10;0.95;;;;;;;;;;5009531;28;20238;-78
2023/05/02 09:00:45;;;;;;;3.60;1.30;;;;;;;;;;5008385;28;20650;-77
2023/05/02 09:03:30;;;;;;;4.30;1.00;;;;;;;;;;5014079;28;20833;-78
2023/05/02 09:05:58;;;;;;;1.83;1.05;;;;;;;;;;5006108;28;20183;-79
2023/05/02 09:08:24;;;;;;;2.42;1.23;;;;;;;;;;5011897;28;20737;-77
2023/05/02 09:10:50;;;;;;;3.60;1.00;;;;;;;;;;5010523;28;20269;-79
2023/05/02 09:13:29;;;;;;;3.72;1.35;;;;;;;;;;5011494;28;20198;-79
2023/05/02 09:16:01;;;;;;;1.60;0.90;;;;;;;;;;5015770;28;20167;-78
2023/05/02 09:18:45;;;;;;;4.22;1.00;;;;;;;;;;5010424;28;20253;-78
2023/05/02 09:21:12;;;;;;;2.55;1.00;;;;;;;;;;5008933;28;20179;-78
2023/05/02 09:23:44;;;;;;;1.80;0.82;;;;;;;;;;5012752;28;20198;-78
2023/05/02 09:26:12;;;;;;;4.85;0.80;;;;;;;;;;5015994;28;20190;-78
2023/05/02 09:28:39;;;;;;;2.40;0.70;;;;;;;;;;5014200;28;20183;-78
2023/05/02 09:31:08;;;;;;;3.53;0.98;;;;;;;;;;5013148;28;20653;-78
2023/05/02 09:33:34;;;;;;;3.10;1.13;;;;;;;;;;5001461;28;20218;-78
2023/05/02 09:35:59;;;;;;;2.05;0.68;;;;;;;;;;5005188;28;20171;-78
2023/05/02 09:38:24;;;;;;;0.95;0.75;;;;;;;;;;5015202;28;20179;-78
2023/05/02 09:40:52;;;;;;;3.20;0.73;;;;;;;;;;5011865;28;20175;-78
2023/05/02 09:43:17;;;;;;;1.83;0.70;;;;;;;;;;5010451;28;20257;-78
2023/05/02 09:45:54;;;;;;;2.63;1.38;;;;;;;;;;5018744;28;20183;-78
2023/05/02 09:48:20;;;;;;;2.97;0.95;;;;;;;;;;5016917;28;20202;-78
2023/05/02 09:50:45;;;;;;;2.30;0.88;;;;;;;;;;5013892;28;20172;-78
2023/05/02 09:53:10;;;;;;;2.35;1.00;;;;;;;;;;5013249;28;20210;-77
2023/05/02 09:55:36;;;;;;;3.28;0.90;;;;;;;;;;5009229;28;20562;-78
2023/05/02 09:58:01;;;;;;;6.13;1.13;;;;;;;;;;5010323;28;20221;-78
2023/05/02 10:00:42;;;;;;;1.20;0.70;;;;;;;;;;5019375;28;20636;-77
2023/05/02 10:03:08;;;;;;;3.40;1.00;;;;;;;;;;5010024;28;20186;-78
2023/05/02 10:05:37;;;;;;;1.95;0.70;;;;;;;;;;5020833;28;20178;-78
2023/05/02 10:08:06;;;;;;;2.42;1.02;;;;;;;;;;5012432;28;20724;-79
2023/05/02 10:10:34;;;;;;;4.35;0.85;;;;;;;;;;5012870;28;20557;-78
2023/05/02 10:13:00;;;;;;;6.05;1.35;;;;;;;;;;5013068;28;20207;-78
2023/05/02 10:15:28;;;;;;;1.60;1.23;;;;;;;;;;5005933;28;20183;-77
2023/05/02 10:17:57;;;;;;;2.72;0.95;;;;;;;;;;5012594;28;20202;-78
2023/05/02 10:20:25;;;;;;;2.85;1.17;;;;;;;;;;5012674;28;20556;-78
2023/05/02 10:22:50;;;;;;;7.10;1.10;;;;;;;;;;5016333;28;20179;-78
2023/05/02 10:25:16;;;;;;;2.65;1.15;;;;;;;;;;5010572;28;20720;-78
2023/05/02 10:27:41;;;;;;;2.53;1.10;;;;;;;;;;5010780;28;20209;-78
2023/05/02 10:30:07;;;;;;;1.95;1.00;;;;;;;;;;5013425;28;20249;-77
2023/05/02 10:32:33;;;;;;;2.97;0.95;;;;;;;;;;5008399;28;20791;-77
2023/05/02 10:35:02;;;;;;;3.35;0.93;;;;;;;;;;5014098;28;20190;-78
2023/05/02 10:37:28;;;;;;;2.08;0.90;;;;;;;;;;5030054;28;20205;-78
2023/05/02 10:39:53;;;;;;;3.80;1.45;;;;;;;;;;5026619;28;20191;-79
2023/05/02 10:42:19;;;;;;;3.22;1.23;;;;;;;;;;5013586;28;20507;-79
2023/05/02 10:44:45;;;;;;;1.10;0.90;;;;;;;;;;5007457;28;20242;-79
2023/05/02 10:47:23;;;;;;;2.92;1.13;;;;;;;;;;5009818;28;20230;-78
2023/05/02 10:49:50;;;;;;;3.88;1.30;;;;;;;;;;4993310;28;20190;-79
2023/05/02 10:52:26;;;;;;;2.95;1.00;;;;;;;;;;5010042;28;20209;-77
2023/05/02 10:55:11;;;;;;;3.65;1.15;;;;;;;;;;5009136;28;20181;-77
2023/05/02 10:57:57;;;;;;;2.78;1.13;;;;;;;;;;5012025;28;20246;-78
2023/05/02 11:00:26;;;;;;;3.05;1.15;;;;;;;;;;5013865;28;20182;-77
2023/05/02 11:02:51;;;;;;;2.97;1.17;;;;;;;;;;5006231;28;20179;-78
2023/05/02 11:05:17;;;;;;;5.97;1.30;;;;;;;;;;5009341;28;20198;-77
2023/05/02 11:07:42;;;;;;;3.22;0.90;;;;;;;;;;5013365;28;20199;-77
2023/05/02 11:10:16;;;;;;;4.70;1.17;;;;;;;;;;5015882;28;20174;-77
2023/05/02 11:12:49;;;;;;;2.97;1.40;;;;;;;;;;5014277;28;20198;-78
2023/05/02 11:15:22;;;;;;;1.88;1.25;;;;;;;;;;5016487;28;20167;-77
2023/05/02 11:18:00;;;;;;;3.03;1.35;;;;;;;;;;5014211;28;20198;-77
2023/05/02 11:20:26;;;;;;;3.83;1.60;;;;;;;;;;5015642;28;20171;-78
2023/05/02 11:22:51;;;;;;;4.60;1.75;;;;;;;;;;5013776;28;20179;-77
2023/05/02 11:25:29;;;;;;;4.93;1.77;;;;;;;;;;5012992;28;20286;-77
2023/05/02 11:27:55;;;;;;;5.22;1.75;;;;;;;;;;5010756;28;20692;-78
2023/05/02 11:30:36;;;;;;;2.08;1.65;;;;;;;;;;5012506;28;20270;-78
2023/05/02 11:33:05;;;;;;;4.43;1.20;;;;;;;;;;5008338;28;20294;-77
2023/05/02 11:35:30;;;;;;;4.97;1.48;;;;;;;;;;5010677;28;20187;-77
2023/05/02 11:37:59;;;;;;;3.75;1.60;;;;;;;;;;5007889;28;20190;-78
2023/05/02 11:40:25;;;;;;;2.72;1.50;;;;;;;;;;5011226;28;20267;-77
2023/05/02 11:42:51;;;;;;;2.90;1.60;;;;;;;;;;5010195;28;20337;-76
2023/05/02 11:45:17;;;;;;;4.57;1.83;;;;;;;;;;5012028;28;20234;-77
2023/05/02 11:47:45;;;;;;;5.22;1.77;;;;;;;;;;5009411;28;20694;-77
2023/05/02 11:50:10;;;;;;;2.88;1.63;;;;;;;;;;5006096;28;20189;-77
2023/05/02 11:52:40;;;;;;;3.83;1.80;;;;;;;;;;5015181;28;20297;-78
2023/05/02 11:55:06;;;;;;;6.28;1.95;;;;;;;;;;5002455;28;20257;-77
2023/05/02 11:57:34;;;;;;;2.30;1.55;;;;;;;;;;5020412;22;20273;-69
2023/05/02 11:59:59;;;;;;;4.20;1.50;;;;;;;;;;5005560;28;20191;-69
2023/05/02 12:02:54;;;;;;;3.05;1.73;;;;;;;;;;5008918;28;20233;-67
2023/05/02 12:05:28;;;;;;;4.30;1.90;;;;;;;;;;4991295;28;20201;-67
2023/05/02 12:07:53;;;;;;;3.95;1.63;;;;;;;;;;5008567;28;20576;-67
2023/05/02 12:10:18;;;;;;;4.10;1.63;;;;;;;;;;5009868;28;20175;-67
2023/05/02 12:12:43;;;;;;;3.90;1.42;;;;;;;;;;5001027;28;20448;-67
2023/05/02 12:15:09;;;;;;;4.15;1.85;;;;;;;;;;5001724;28;20190;-68
2023/05/02 12:17:42;;;;;;;4.00;1.70;;;;;;;;;;5008488;28;20249;-68
2023/05/02 12:20:08;;;;;;;5.38;1.90;;;;;;;;;;5010015;28;20179;-68
2023/05/02 12:22:33;;;;;;;5.43;2.10;;;;;;;;;;5009522;28;20655;-68
2023/05/02 12:24:59;;;;;;;4.85;1.77;;;;;;;;;;5010805;28;20195;-67
2023/05/02 12:27:24;;;;;;;2.28;1.42;;;;;;;;;;5008561;28;20315;-68
2023/05/02 12:29:49;;;;;;;2.60;1.73;;;;;;;;;;5009382;28;20207;-68
2023/05/02 12:32:25;;;;;;;2.92;1.70;;;;;;;;;;5000248;28;20452;-68
2023/05/02 12:34:50;;;;;;;4.68;1.95;;;;;;;;;;5012959;28;20221;-67
2023/05/02 12:37:21;;;;;;;6.07;1.80;;;;;;;;;;5013343;28;20194;-69
2023/05/02 12:39:46;;;;;;;3.15;2.22;;;;;;;;;;5010698;28;20171;-68
2023/05/02 12:42:12;;;;;;;5.75;1.60;;;;;;;;;;5012157;28;20187;-68
2023/05/02 12:44:38;;;;;;;3.22;2.05;;;;;;;;;;5013432;28;20528;-68
2023/05/02 12:47:03;;;;;;;6.05;2.17;;;;;;;;;;5006580;28;20233;-69
2023/05/02 12:49:28;;;;;;;2.10;1.90;;;;;;;;;;5007368;28;20175;-67
2023/05/02 12:51:57;;;;;;;4.65;2.10;;;;;;;;;;5017429;28;20193;-68
2023/05/02 12:54:22;;;;;;;2.78;1.77;;;;;;;;;;5013034;28;20669;-68
2023/05/02 12:56:50;;;;;;;6.68;1.75;;;;;;;;;;5013005;28;20187;-68
2023/05/02 12:59:25;;;;;;;3.95;1.73;;;;;;;;;;5009939;28;20226;-69
2023/05/02 13:01:50;;;;;;;5.10;2.15;;;;;;;;;;5011659;28;20170;-68
2023/05/02 13:04:15;;;;;;;5.90;1.95;;;;;;;;;;5013317;28;20186;-68
2023/05/02 13:06:41;;;;;;;3.42;1.83;;;;;;;;;;5008504;28;20185;-69
2023/05/02 13:09:06;;;;;;;6.63;2.10;;;;;;;;;;5013386;28;20270;-69
2023/05/02 13:11:31;;;;;;;5.80;2.35;;;;;;;;;;5010295;28;20314;-68
2023/05/02 13:13:59;;;;;;;5.85;1.98;;;;;;;;;;5013138;28;20199;-69
2023/05/02 13:16:24;;;;;;;4.25;2.38;;;;;;;;;;5012556;28;20175;-69
2023/05/02 13:18:50;;;;;;;4.90;1.95;;;;;;;;;;5013346;28;20203;-68
2023/05/02 13:21:15;;;;;;;5.28;2.00;;;;;;;;;;5012437;28;20186;-69
2023/05/02 13:23:42;;;;;;;4.65;2.08;;;;;;;;;;5015464;28;20237;-69
2023/05/02 13:26:08;;;;;;;8.02;2.80;;;;;;;;;;5007194;28;20195;-68
2023/05/02 13:28:34;;;;;;;4.03;1.95;;;;;;;;;;5005426;28;20203;-69
2023/05/02 13:30:59;;;;;;;3.63;2.00;;;;;;;;;;5012247;28;20668;-68
2023/05/02 13:33:25;;;;;;;5.22;1.80;;;;;;;;;;5010116;28;20285;-68
2023/05/02 13:35:50;;;;;;;4.93;2.53;;;;;;;;;;5008394;28;20223;-69
2023/05/02 13:38:15;;;;;;;3.20;1.88;;;;;;;;;;5006169;28;20437;-68
2023/05/02 13:40:40;;;;;;;4.93;2.27;;;;;;;;;;5007778;28;20222;-68
2023/05/02 13:43:05;;;;;;;4.72;2.45;;;;;;;;;;5000360;28;20890;-69
2023/05/02 13:45:31;;;;;;;5.73;2.50;;;;;;;;;;5001228;28;20286;-68
2023/05/02 13:47:56;;;;;;;6.25;2.25;;;;;;;;;;5007776;28;20482;-68
2023/05/02 13:50:21;;;;;;;7.78;2.28;;;;;;;;;;5005100;28;20195;-69
2023/05/02 13:52:46;;;;;;;12.07;2.70;;;;;;;;;;5005870;28;20215;-68
2023/05/02 13:55:11;;;;;;;6.22;2.55;;;;;;;;;;5011396;28;20502;-68
2023/05/02 13:57:37;;;;;;;5.30;2.27;;;;;;;;;;5006521;28;20212;-68
2023/05/02 14:00:03;;;;;;;3.43;2.30;;;;;;;;;;4999101;28;20793;-68
2023/05/02 14:02:28;;;;;;;6.07;2.72;;;;;;;;;;5005899;28;20429;-68
2023/05/02 14:04:53;;;;;;;5.30;2.55;;;;;;;;;;5003671;28;20648;-69
2023/05/02 14:07:18;;;;;;;7.05;2.40;;;;;;;;;;5009020;28;20207;-69
2023/05/02 14:09:43;;;;;;;4.57;2.72;;;;;;;;;;5012328;28;20179;-68
2023/05/02 14:12:09;;;;;;;7.03;2.40;;;;;;;;;;5006375;28;20272;-69
2023/05/02 14:14:36;;;;;;;5.47;2.92;;;;;;;;;;5008865;28;20167;-69
2023/05/02 14:17:01;;;;;;;3.78;2.00;;;;;;;;;;5007331;28;20205;-68
2023/05/02 14:19:26;;;;;;;7.60;2.38;;;;;;;;;;5004331;28;20262;-68
2023/05/02 14:21:52;;;;;;;4.07;2.95;;;;;;;;;;5011153;28;20187;-68
2023/05/02 14:24:18;;;;;;;6.10;3.30;;;;;;;;;;5002373;28;20183;-68
2023/05/02 14:26:43;;;;;;;4.30;2.88;;;;;;;;;;5007770;28;20182;-68
2023/05/02 14:29:08;;;;;;;5.93;2.35;;;;;;;;;;5009758;28;20187;-68
2023/05/02 14:31:34;;;;;;;10.13;2.53;;;;;;;;;;5008950;28;20187;-67
2023/05/02 14:33:59;;;;;;;6.35;2.45;;;;;;;;;;5002592;28;20195;-68
2023/05/02 14:36:24;;;;;;;5.72;2.17;;;;;;;;;;5001304;28;20552;-68
2023/05/02 14:38:49;;;;;;;6.40;2.40;;;;;;;;;;5012005;28;20187;-68